createdAt,value
2022-09-13T00:01:16.118Z,6.00
2022-09-13T00:04:17.720Z,6.00
2022-09-13T00:07:19.234Z,7.40
2022-09-13T00:10:21.388Z,6.10
2022-09-13T00:13:22.876Z,5.80
2022-09-13T00:16:27.170Z,6.20
2022-09-13T00:19:28.716Z,6.70
2022-09-13T00:22:30.452Z,6.10
2022-09-13T00:25:32.013Z,6.70
2022-09-13T00:28:34.070Z,6.70
2022-09-13T00:31:35.576Z,6.50
2022-09-13T00:34:37.463Z,6.20
2022-09-13T00:37:39.193Z,6.80
2022-09-13T00:40:40.742Z,7.30
2022-09-13T00:43:50.031Z,6.70
2022-09-13T00:46:52.098Z,6.70
2022-09-13T00:53:27.112Z,6.70
2022-09-13T00:56:38.913Z,6.70
2022-09-13T00:59:44.619Z,5.90
2022-09-13T01:02:52.087Z,7.10
2022-09-13T01:06:02.866Z,6.80
2022-09-13T01:09:05.722Z,7.10
2022-09-13T01:12:18.212Z,7.90
2022-09-13T01:15:20.152Z,7.90
2022-09-13T01:18:21.747Z,7.80
2022-09-13T01:21:38.492Z,7.90
2022-09-13T01:24:55.865Z,8.10
2022-09-13T01:28:09.209Z,7.30
2022-09-13T01:31:44.407Z,7.40
2022-09-13T01:35:04.276Z,8.00
2022-09-13T01:38:17.919Z,7.60
2022-09-13T01:41:38.491Z,8.00
2022-09-13T01:45:04.398Z,7.70
2022-09-13T01:48:21.867Z,7.50
2022-09-13T01:51:26.272Z,7.70
2022-09-13T01:55:03.397Z,7.70
2022-09-13T01:58:08.664Z,7.60
2022-09-13T02:01:17.938Z,7.60
2022-09-13T02:04:23.654Z,7.40
2022-09-13T02:07:33.457Z,7.90
2022-09-13T02:10:40.960Z,7.90
2022-09-13T02:14:06.697Z,7.00
2022-09-13T02:17:14.689Z,8.10
2022-09-13T02:20:23.238Z,7.60
2022-09-13T02:23:39.973Z,8.10
2022-09-13T02:26:45.981Z,8.50
2022-09-13T02:29:50.834Z,8.20
2022-09-13T02:33:00.134Z,8.80
2022-09-13T02:36:09.541Z,8.20
2022-09-13T02:39:15.977Z,8.40
2022-09-13T02:42:21.381Z,7.70
2022-09-13T02:45:31.220Z,8.20
2022-09-13T02:48:47.727Z,8.40
2022-09-13T02:51:58.791Z,8.60
2022-09-13T02:55:03.360Z,8.80
2022-09-13T02:58:28.162Z,9.40
2022-09-13T03:01:30.416Z,9.40
2022-09-13T03:07:34.170Z,9.50
2022-09-13T03:11:09.179Z,10.30
2022-09-13T03:14:31.916Z,11.10
2022-09-13T03:17:58.073Z,12.00
2022-09-13T03:21:33.633Z,11.60
2022-09-13T03:25:04.170Z,10.30
2022-09-13T03:28:27.223Z,9.70
2022-09-13T03:32:00.794Z,9.80
2022-09-13T03:35:05.472Z,10.00
2022-09-13T03:38:16.540Z,11.70
2022-09-13T03:41:34.506Z,13.90
2022-09-13T03:44:39.776Z,12.50
2022-09-13T03:47:44.245Z,12.50
2022-09-13T03:50:47.352Z,13.30
2022-09-13T03:54:00.847Z,12.50
2022-09-13T03:57:09.343Z,14.10
2022-09-13T04:00:13.480Z,15.20
2022-09-13T04:03:15.041Z,15.00
2022-09-13T04:06:16.781Z,13.50
2022-09-13T04:09:18.223Z,12.10
2022-09-13T04:12:19.683Z,11.60
2022-09-13T04:15:21.283Z,12.00
2022-09-13T04:18:23.956Z,12.70
2022-09-13T04:21:25.419Z,12.00
2022-09-13T04:24:28.357Z,12.30
2022-09-13T04:27:29.873Z,12.00
2022-09-13T04:30:31.401Z,11.90
2022-09-13T04:33:32.881Z,11.90
2022-09-13T04:36:34.364Z,12.50
2022-09-13T04:39:36.130Z,12.80
2022-09-13T04:42:37.570Z,13.10
2022-09-13T04:45:39.252Z,13.40
2022-09-13T04:48:40.824Z,12.90
2022-09-13T04:51:42.708Z,12.80
2022-09-13T04:54:44.203Z,11.90
2022-09-13T04:57:45.695Z,13.00
2022-09-13T05:00:47.389Z,13.00
2022-09-13T05:03:50.789Z,12.90
2022-09-13T05:06:52.398Z,12.60
2022-09-13T05:09:53.880Z,14.60
2022-09-13T05:12:55.388Z,14.10
2022-09-13T05:15:58.081Z,14.60
2022-09-13T05:19:00.473Z,14.10
2022-09-13T05:22:02.390Z,15.30
2022-09-13T05:25:04.321Z,15.20
2022-09-13T05:28:06.049Z,19.70
2022-09-13T05:31:13.705Z,17.60
2022-09-13T05:34:19.949Z,15.50
2022-09-13T05:37:21.659Z,15.20
2022-09-13T05:40:23.220Z,15.50
2022-09-13T05:43:27.095Z,14.80
2022-09-13T05:46:28.781Z,14.00
2022-09-13T05:49:30.453Z,14.70
2022-09-13T05:52:31.912Z,14.60
2022-09-13T05:55:33.613Z,14.80
2022-09-13T05:58:39.192Z,14.50
2022-09-13T06:01:40.806Z,14.10
2022-09-13T06:04:43.021Z,13.20
2022-09-13T06:07:44.644Z,12.20
2022-09-13T06:10:59.663Z,13.20
2022-09-13T06:14:01.272Z,11.50
2022-09-13T06:17:02.861Z,12.30
2022-09-13T06:20:04.956Z,11.40
2022-09-13T06:23:06.484Z,10.80
2022-09-13T06:26:10.659Z,10.50
2022-09-13T06:29:14.160Z,10.80
2022-09-13T06:32:15.890Z,11.10
2022-09-13T06:35:17.736Z,9.70
2022-09-13T06:38:19.864Z,10.10
2022-09-13T06:41:24.542Z,9.70
2022-09-13T06:44:26.121Z,8.70
2022-09-13T06:47:27.908Z,9.90
2022-09-13T06:50:29.472Z,9.70
2022-09-13T06:53:31.504Z,9.30
2022-09-13T06:56:35.366Z,9.90
2022-09-13T06:59:37.301Z,9.60
2022-09-13T07:02:39.267Z,9.50
2022-09-13T07:05:40.799Z,9.30
2022-09-13T07:08:43.635Z,8.40
2022-09-13T07:11:46.794Z,8.20
2022-09-13T07:14:48.687Z,7.50
2022-09-13T07:18:02.673Z,8.00
2022-09-13T07:21:10.178Z,7.30
2022-09-13T07:24:12.023Z,8.00
2022-09-13T07:27:16.143Z,7.90
2022-09-13T07:30:17.835Z,7.30
2022-09-13T07:33:20.324Z,7.50
2022-09-13T07:36:22.809Z,6.80
2022-09-13T07:39:24.454Z,6.60
2022-09-13T07:42:26.988Z,6.80
2022-09-13T07:45:28.657Z,5.70
2022-09-13T07:48:33.735Z,5.30
2022-09-13T07:51:37.942Z,5.60
2022-09-13T07:54:39.498Z,5.40
2022-09-13T07:57:41.268Z,5.40
2022-09-13T08:00:43.032Z,5.20
2022-09-13T08:03:49.687Z,5.30
2022-09-13T08:06:51.640Z,4.90
2022-09-13T08:09:55.729Z,5.60
2022-09-13T08:12:57.272Z,5.30
2022-09-13T08:16:04.059Z,5.30
2022-09-13T08:19:09.954Z,5.30
2022-09-13T08:22:11.575Z,6.90
2022-09-13T08:25:13.330Z,5.50
2022-09-13T08:28:17.080Z,4.60
2022-09-13T08:31:19.996Z,4.80
2022-09-13T08:34:21.734Z,4.80
2022-09-13T08:37:23.558Z,4.80
2022-09-13T08:40:30.091Z,4.80
2022-09-13T08:44:00.163Z,5.30
2022-09-13T08:47:10.890Z,4.80
2022-09-13T08:50:19.030Z,5.50
2022-09-13T08:53:28.730Z,5.30
2022-09-13T08:56:58.906Z,5.50
2022-09-13T09:00:03.114Z,5.40
2022-09-13T09:03:25.119Z,5.00
2022-09-13T09:06:28.238Z,5.40
2022-09-13T09:09:35.062Z,6.00
2022-09-13T09:12:42.424Z,6.50
2022-09-13T09:15:51.212Z,5.80
2022-09-13T09:18:59.508Z,5.20
2022-09-13T09:22:05.085Z,5.30
2022-09-13T09:25:10.741Z,5.20
2022-09-13T09:28:14.702Z,4.60
2022-09-13T09:31:24.761Z,4.30
2022-09-13T09:34:52.107Z,4.40
2022-09-13T09:38:23.188Z,4.60
2022-09-13T09:41:34.529Z,3.70
2022-09-13T09:44:43.091Z,3.90
2022-09-13T09:47:47.238Z,3.90
2022-09-13T09:50:52.458Z,3.20
2022-09-13T09:54:04.609Z,3.20
2022-09-13T09:57:09.359Z,3.20
2022-09-13T10:00:12.197Z,3.10
2022-09-13T10:03:20.218Z,2.90
2022-09-13T10:06:25.045Z,3.10
2022-09-13T10:09:27.020Z,3.60
2022-09-13T10:12:33.274Z,3.30
2022-09-13T10:15:35.222Z,2.90
2022-09-13T10:18:45.345Z,3.10
2022-09-13T10:22:03.567Z,3.20
2022-09-13T10:25:13.275Z,2.80
2022-09-13T10:28:18.656Z,2.70
2022-09-13T10:31:26.588Z,2.80
2022-09-13T10:34:32.975Z,2.50
2022-09-13T10:37:35.893Z,2.30
2022-09-13T10:40:39.090Z,2.60
2022-09-13T10:43:41.150Z,2.50
2022-09-13T10:46:42.675Z,2.30
2022-09-13T10:49:49.942Z,1.80
2022-09-13T10:52:56.913Z,1.90
2022-09-13T10:55:58.812Z,2.50
2022-09-13T10:59:18.562Z,2.10
2022-09-13T11:02:46.748Z,1.50
2022-09-13T11:06:31.002Z,1.40
2022-09-13T11:09:47.773Z,2.00
2022-09-13T11:13:36.881Z,1.90
2022-09-13T11:16:53.614Z,1.90
2022-09-13T11:20:00.940Z,1.90
2022-09-13T11:23:24.416Z,2.00
2022-09-13T11:26:38.885Z,2.20
2022-09-13T11:30:00.243Z,2.20
2022-09-13T11:33:30.463Z,2.30
2022-09-13T11:36:59.426Z,2.30
2022-09-13T11:40:28.540Z,2.20
2022-09-13T11:43:56.896Z,2.20
2022-09-13T11:47:16.641Z,2.40
2022-09-13T11:50:40.994Z,2.20
2022-09-13T11:54:06.857Z,2.50
2022-09-13T11:57:15.849Z,2.40
2022-09-13T12:00:29.579Z,2.60
2022-09-13T12:04:03.206Z,2.80
2022-09-13T12:07:12.575Z,2.80
2022-09-13T12:10:54.783Z,2.60
2022-09-13T12:14:03.885Z,2.80
2022-09-13T12:17:19.246Z,2.70
2022-09-13T12:20:49.079Z,2.70
2022-09-13T12:24:05.714Z,2.70
2022-09-13T12:27:21.359Z,2.70
2022-09-13T12:30:33.045Z,2.70
2022-09-13T12:33:39.315Z,2.60
2022-09-13T12:37:14.807Z,3.00
2022-09-13T12:40:30.361Z,3.20
2022-09-13T12:43:53.192Z,2.90
2022-09-13T12:47:39.046Z,3.40
2022-09-13T12:50:45.580Z,3.10
2022-09-13T12:54:25.008Z,2.90
2022-09-13T12:57:43.090Z,2.80
2022-09-13T13:01:34.254Z,3.10
2022-09-13T13:04:36.849Z,2.90
2022-09-13T13:07:40.242Z,3.10
2022-09-13T13:10:41.948Z,2.70
2022-09-13T13:14:01.742Z,2.60
2022-09-13T13:17:34.444Z,3.00
2022-09-13T13:20:54.506Z,2.60
2022-09-13T13:24:15.423Z,3.20
2022-09-13T13:27:34.870Z,3.40
2022-09-13T13:30:49.279Z,3.70
2022-09-13T13:33:57.955Z,3.00
2022-09-13T13:37:01.261Z,3.20
2022-09-13T13:40:25.110Z,3.40
2022-09-13T13:43:33.521Z,3.00
2022-09-13T13:46:35.121Z,3.00
2022-09-13T13:49:38.015Z,3.50
2022-09-13T13:52:58.633Z,2.80
2022-09-13T13:56:34.508Z,2.90
2022-09-13T13:59:36.365Z,2.40
2022-09-13T14:02:48.181Z,2.70
2022-09-13T14:06:09.604Z,2.50
2022-09-13T14:09:38.339Z,2.60
2022-09-13T14:12:52.192Z,2.80
2022-09-13T14:16:18.562Z,2.70
2022-09-13T14:19:23.994Z,2.60
2022-09-13T14:22:28.011Z,2.70
2022-09-13T14:25:29.625Z,3.00
2022-09-13T14:28:32.216Z,2.50
2022-09-13T14:31:35.173Z,2.90
2022-09-13T14:34:38.539Z,3.10
2022-09-13T14:37:40.108Z,3.40
2022-09-13T14:40:48.003Z,2.60
2022-09-13T14:43:49.942Z,2.60
2022-09-13T14:47:00.360Z,4.50
2022-09-13T14:50:07.133Z,2.70
2022-09-13T14:53:20.118Z,2.90
2022-09-13T14:56:39.605Z,2.60
2022-09-13T14:59:48.344Z,3.00
2022-09-13T15:03:02.542Z,2.90
2022-09-13T15:06:04.960Z,2.80
2022-09-13T15:09:09.577Z,2.60
2022-09-13T15:12:28.126Z,2.90
2022-09-13T15:15:44.561Z,2.60
2022-09-13T15:18:46.286Z,2.70
2022-09-13T15:21:47.983Z,3.10
2022-09-13T15:25:27.137Z,3.20
2022-09-13T15:28:33.616Z,3.30
2022-09-13T15:31:35.366Z,2.80
2022-09-13T15:34:46.256Z,2.90
2022-09-13T15:38:07.739Z,2.60
2022-09-13T15:41:17.539Z,2.40
2022-09-13T15:44:20.047Z,2.80
2022-09-13T15:47:22.116Z,2.40
2022-09-13T15:53:28.443Z,3.30
2022-09-13T15:56:37.202Z,3.30
2022-09-13T15:59:38.733Z,3.40
2022-09-13T16:02:40.204Z,3.10
2022-09-13T16:05:41.917Z,3.60
2022-09-13T16:08:43.520Z,3.20
2022-09-13T16:11:46.391Z,3.60
2022-09-13T16:14:49.175Z,3.90
2022-09-13T16:17:50.776Z,3.70
2022-09-13T16:20:52.555Z,3.70
2022-09-13T16:23:54.044Z,3.80
2022-09-13T16:26:55.579Z,3.90
2022-09-13T16:29:57.061Z,3.70
2022-09-13T16:32:59.429Z,3.90
2022-09-13T16:36:02.425Z,3.20
2022-09-13T16:39:04.477Z,3.90
2022-09-13T16:42:08.280Z,3.50
2022-09-13T16:45:11.258Z,3.60
2022-09-13T16:48:12.936Z,3.60
2022-09-13T16:51:14.523Z,3.50
2022-09-13T16:54:16.031Z,3.80
2022-09-13T16:57:17.653Z,5.40
2022-09-13T17:00:19.524Z,4.10
2022-09-13T17:03:21.249Z,4.10
2022-09-13T17:06:25.509Z,3.80
2022-09-13T17:09:27.955Z,3.40
2022-09-13T17:12:30.158Z,3.50
2022-09-13T17:18:34.398Z,3.40
2022-09-13T17:21:36.609Z,3.40
2022-09-13T17:24:39.585Z,3.40
2022-09-13T17:27:41.734Z,3.70
2022-09-13T17:30:46.264Z,4.10
2022-09-13T17:33:49.912Z,4.10
2022-09-13T17:36:52.805Z,4.50
2022-09-13T17:39:55.323Z,4.20
2022-09-13T17:42:57.541Z,4.70
2022-09-13T17:49:11.964Z,4.20
2022-09-13T17:52:14.580Z,3.50
2022-09-13T17:55:17.234Z,3.70
2022-09-13T17:58:19.618Z,3.50
2022-09-13T18:01:22.707Z,3.60
2022-09-13T18:04:25.397Z,3.30
2022-09-13T18:07:27.630Z,3.20
2022-09-13T18:10:53.458Z,3.40
2022-09-13T18:13:53.951Z,3.20
2022-09-13T18:16:58.286Z,3.30
2022-09-13T18:20:00.477Z,3.90
2022-09-13T18:26:11.299Z,3.90
2022-09-13T18:29:14.432Z,4.50
2022-09-13T18:32:18.614Z,11.10
2022-09-13T18:35:21.294Z,5.00
2022-09-13T18:38:24.271Z,4.30
2022-09-13T18:41:43.325Z,4.20
2022-09-13T18:44:45.679Z,5.40
2022-09-13T18:47:48.561Z,5.70
2022-09-13T18:50:53.856Z,5.40
2022-09-13T18:54:04.105Z,4.40
2022-09-13T18:57:09.210Z,4.70
2022-09-13T19:00:15.049Z,4.50
2022-09-13T19:03:19.201Z,3.90
2022-09-13T19:06:25.754Z,3.70
2022-09-13T19:09:35.971Z,4.00
2022-09-13T19:12:43.889Z,4.60
2022-09-13T19:15:46.717Z,4.70
2022-09-13T19:18:52.785Z,4.60
2022-09-13T19:25:16.124Z,4.40
2022-09-13T19:28:19.724Z,4.20
2022-09-13T19:31:26.525Z,4.10
2022-09-13T19:34:30.060Z,4.20
2022-09-13T19:37:38.921Z,4.00
2022-09-13T19:40:42.696Z,4.20
2022-09-13T19:43:48.590Z,4.70
2022-09-13T19:47:14.922Z,4.40
2022-09-13T19:50:14.427Z,4.60
2022-09-13T19:53:17.418Z,4.30
2022-09-13T19:56:22.331Z,4.30
2022-09-13T19:59:26.448Z,4.20
2022-09-13T20:05:32.677Z,4.20
2022-09-13T20:08:34.940Z,4.10
2022-09-13T20:11:42.164Z,4.00
2022-09-13T20:14:44.206Z,3.80
2022-09-13T20:17:48.891Z,3.90
2022-09-13T20:20:55.870Z,4.70
2022-09-13T20:24:03.057Z,4.00
2022-09-13T20:27:05.172Z,4.00
2022-09-13T20:30:07.436Z,4.40
2022-09-13T20:36:14.538Z,4.10
2022-09-13T20:39:16.202Z,4.50
2022-09-13T20:42:17.650Z,4.30
2022-09-13T20:45:19.494Z,4.30
2022-09-13T20:48:21.053Z,4.10
2022-09-13T20:51:24.615Z,4.50
2022-09-13T20:54:26.536Z,4.50
2022-09-13T20:57:28.501Z,3.60
2022-09-13T21:00:30.014Z,4.30
2022-09-13T21:03:36.364Z,3.80
2022-09-13T21:07:00.873Z,4.10
2022-09-13T21:10:04.128Z,4.20
2022-09-13T21:13:08.798Z,4.10
2022-09-13T21:16:15.963Z,4.30
2022-09-13T21:19:17.911Z,3.90
2022-09-13T21:22:20.425Z,4.10
2022-09-13T21:25:21.972Z,4.20
2022-09-13T21:28:23.610Z,3.70
2022-09-13T21:31:28.247Z,3.80
2022-09-13T21:34:29.823Z,4.40
2022-09-13T21:37:31.309Z,3.70
2022-09-13T21:40:32.774Z,3.60
2022-09-13T21:43:34.691Z,4.10
2022-09-13T21:46:37.718Z,3.50
2022-09-13T21:49:39.189Z,3.70
2022-09-13T21:52:41.341Z,3.70
2022-09-13T21:58:54.399Z,3.80
2022-09-13T22:01:55.949Z,4.20
2022-09-13T22:04:57.570Z,4.00
2022-09-13T22:07:59.114Z,4.20
2022-09-13T22:11:09.714Z,4.50
2022-09-13T22:14:13.389Z,4.20
2022-09-13T22:17:14.895Z,4.10
2022-09-13T22:20:16.585Z,4.10
2022-09-13T22:23:18.132Z,4.30
2022-09-13T22:26:22.629Z,3.70
2022-09-13T22:29:24.692Z,4.00
2022-09-13T22:32:30.399Z,3.80
2022-09-13T22:35:32.102Z,4.10
2022-09-13T22:38:34.859Z,4.10
2022-09-13T22:41:36.453Z,4.20
2022-09-13T22:44:37.969Z,4.30
2022-09-13T22:47:39.417Z,3.80
2022-09-13T22:50:40.999Z,3.90
2022-09-13T22:53:44.108Z,3.90
2022-09-13T22:56:46.212Z,3.60
2022-09-13T22:59:47.849Z,4.20
2022-09-13T23:02:49.249Z,3.90
2022-09-13T23:05:51.856Z,3.70
2022-09-13T23:08:55.371Z,3.80
2022-09-13T23:11:56.894Z,3.90
2022-09-13T23:14:58.316Z,3.70
2022-09-13T23:17:59.992Z,4.10
2022-09-13T23:21:01.615Z,4.40
2022-09-13T23:24:05.526Z,4.30
2022-09-13T23:27:07.234Z,4.20
2022-09-13T23:30:09.066Z,4.00
2022-09-13T23:33:13.751Z,3.90
2022-09-13T23:36:18.228Z,4.10
2022-09-13T23:39:19.802Z,3.90
2022-09-13T23:42:21.360Z,3.60
2022-09-13T23:45:22.843Z,3.80
2022-09-13T23:48:24.822Z,3.70
2022-09-13T23:51:26.872Z,3.70
2022-09-13T23:54:28.392Z,3.60
2022-09-13T23:57:29.911Z,4.10
